Airport View

Enter AWOS ICAO identifier for current METAR.

ex. KFNL

KM21 280155Z AUTO 00000KT 5SM BR CLR 17/17 A2980 RMK AO2 T01670167

28 Sep 2020 01:57

Frequency: 120.45

Phone: 270-338-7788

Other Area AWOS: K2I0 - KOWB - KHOP - KCKV

TAF KOWB 272331Z 2800/2824 19005KT P6SM FEW250 FM281000 31011G18KT P6SM VCSH OVC035 FM281300 31009KT 6SM SHRA BR OVC015 FM281500 32011G18KT 4SM SHRA BR OVC008 FM281900 32012G19KT P6SM BKN012 FM282200 32009KT P6SM BKN025